createdAt,value
2019-04-22T00:01:45.569Z,97756.19
2019-04-22T00:04:32.284Z,97758.65
2019-04-22T00:07:15.644Z,97749.80
2019-04-22T00:09:51.551Z,97749.44
2019-04-22T00:12:27.197Z,97746.52
2019-04-22T00:14:52.559Z,97748.12
2019-04-22T00:17:38.630Z,97748.16
2019-04-22T00:20:08.619Z,97740.41
2019-04-22T00:22:42.710Z,97730.83
2019-04-22T00:25:19.895Z,97726.62
2019-04-22T00:27:47.904Z,97725.95
2019-04-22T00:30:22.462Z,97722.43
2019-04-22T00:33:04.776Z,97721.95
2019-04-22T00:35:39.346Z,97716.58
2019-04-22T00:40:44.649Z,97719.47
2019-04-22T00:43:21.105Z,97715.64
2019-04-22T00:46:10.952Z,97715.80
2019-04-22T00:48:32.257Z,97706.13
2019-04-22T00:51:05.790Z,97712.73
2019-04-22T00:53:36.110Z,97709.02
2019-04-22T00:56:10.945Z,97710.66
2019-04-22T01:01:18.880Z,97703.10
2019-04-22T01:03:59.050Z,97700.08
2019-04-22T01:06:39.823Z,97703.23
2019-04-22T01:11:33.928Z,97699.10
2019-04-22T01:14:09.173Z,97703.17
2019-04-22T01:16:45.798Z,97695.28
2019-04-22T01:19:19.836Z,97697.09
2019-04-22T01:22:09.880Z,97698.20
2019-04-22T01:24:24.679Z,97692.44
2019-04-22T01:26:50.778Z,97688.86
2019-04-22T01:29:19.715Z,97687.48
2019-04-22T01:31:44.219Z,97693.28
2019-04-22T01:34:32.155Z,97691.28
2019-04-22T01:37:07.698Z,97689.53
2019-04-22T01:39:49.798Z,97686.98
2019-04-22T01:42:18.707Z,97687.56
2019-04-22T01:44:52.171Z,97689.42
2019-04-22T01:47:31.349Z,97683.30
2019-04-22T01:50:06.302Z,97677.77
2019-04-22T01:52:39.896Z,97672.28
2019-04-22T01:55:18.894Z,97673.98
2019-04-22T01:57:44.446Z,97666.34
2019-04-22T02:00:11.319Z,97667.43
2019-04-22T02:02:58.827Z,97669.94
2019-04-22T02:05:30.039Z,97669.03
2019-04-22T02:08:04.421Z,97663.77
2019-04-22T02:10:43.902Z,97665.36
2019-04-22T02:13:06.500Z,97666.03
2019-04-22T02:15:47.852Z,97662.20
2019-04-22T02:20:50.023Z,97655.84
2019-04-22T02:23:51.254Z,97649.66
2019-04-22T02:36:34.182Z,97634.32
2019-04-22T02:39:05.584Z,97632.09
2019-04-22T02:49:22.012Z,97626.00
2019-04-22T02:51:36.653Z,97625.41
2019-04-22T02:56:53.772Z,97618.66
2019-04-22T03:02:18.935Z,97611.73
2019-04-22T03:04:37.222Z,97608.78
2019-04-22T03:07:03.626Z,97610.94
2019-04-22T03:10:01.224Z,97606.05
2019-04-22T03:12:29.255Z,97603.23
2019-04-22T03:14:48.282Z,97599.91
2019-04-22T03:17:36.752Z,97596.48
2019-04-22T03:20:09.124Z,97597.59
2019-04-22T03:30:41.670Z,97581.53
2019-04-22T03:48:07.318Z,97571.53
2019-04-22T03:50:36.842Z,97571.55
2019-04-22T03:53:21.179Z,97576.95
2019-04-22T03:55:53.354Z,97576.63
2019-04-22T03:58:28.373Z,97566.38
2019-04-22T04:01:10.259Z,97569.00
2019-04-22T04:03:39.444Z,97566.57
2019-04-22T04:06:05.392Z,97566.48
2019-04-22T04:08:53.363Z,97557.86
2019-04-22T04:11:26.842Z,97564.03
2019-04-22T04:14:01.779Z,97559.80
2019-04-22T04:16:30.681Z,97558.27
2019-04-22T04:19:07.589Z,97554.52
2019-04-22T04:24:29.089Z,97549.46
2019-04-22T04:27:03.774Z,97553.19
2019-04-22T04:29:36.071Z,97549.38
2019-04-22T04:31:59.109Z,97550.13
2019-04-22T04:34:47.870Z,97543.19
2019-04-22T04:37:07.409Z,97542.42
2019-04-22T04:39:40.845Z,97539.56
2019-04-22T04:42:16.085Z,97541.25
2019-04-22T04:45:11.796Z,97542.78
2019-04-22T04:49:52.731Z,97533.40
2019-04-22T04:52:39.726Z,97536.54
2019-04-22T04:55:03.932Z,97538.99
2019-04-22T04:57:37.205Z,97536.23
2019-04-22T05:00:32.661Z,97531.77
2019-04-22T05:22:59.468Z,97518.30
2019-04-22T05:25:32.347Z,97518.63
2019-04-22T05:28:11.798Z,97512.44
2019-04-22T05:30:39.573Z,97517.65
2019-04-22T05:33:21.701Z,97511.93
2019-04-22T05:35:58.374Z,97497.14
2019-04-22T05:38:35.001Z,97494.68
2019-04-22T05:41:02.623Z,97490.83
2019-04-22T05:43:38.672Z,97481.95
2019-04-22T05:46:09.633Z,97483.94
2019-04-22T05:48:43.951Z,97478.95
2019-04-22T05:51:21.785Z,97474.34
2019-04-22T05:53:59.032Z,97470.98
2019-04-22T05:56:34.738Z,97460.16
2019-04-22T06:06:35.383Z,97451.20
2019-04-22T06:09:14.741Z,97454.27
2019-04-22T06:11:50.978Z,97447.39
2019-04-22T06:14:22.971Z,97451.05
2019-04-22T06:19:31.879Z,97451.72
2019-04-22T06:22:16.933Z,97445.84
2019-04-22T06:24:43.460Z,97446.55
2019-04-22T06:27:21.818Z,97448.34
2019-04-22T06:29:46.415Z,97442.30
2019-04-22T06:35:07.794Z,97437.25
2019-04-22T06:37:35.040Z,97439.09
2019-04-22T06:40:11.011Z,97440.34
2019-04-22T06:42:42.462Z,97441.89
2019-04-22T06:50:24.481Z,97431.55
2019-04-22T06:52:56.867Z,97428.28
2019-04-22T06:55:35.688Z,97429.25
2019-04-22T06:58:05.990Z,97423.19
2019-04-22T07:00:36.672Z,97414.12
2019-04-22T07:05:49.490Z,97412.72
2019-04-22T07:08:46.296Z,97409.80
2019-04-22T07:10:50.794Z,97405.95
2019-04-22T07:13:34.420Z,97412.56
2019-04-22T07:21:27.462Z,97385.71
2019-04-22T07:23:51.401Z,97383.62
2019-04-22T07:28:57.972Z,97370.42
2019-04-22T07:31:44.978Z,97374.21
2019-04-22T07:34:14.547Z,97364.19
2019-04-22T07:39:10.349Z,97355.19
2019-04-22T07:41:48.966Z,97352.30
2019-04-22T07:44:20.701Z,97349.20
2019-04-22T07:46:57.985Z,97348.81
2019-04-22T07:49:36.124Z,97346.31
2019-04-22T07:51:55.710Z,97345.92
2019-04-22T07:54:34.981Z,97347.63
2019-04-22T07:57:15.336Z,97345.34
2019-04-22T07:59:40.432Z,97340.19
2019-04-22T08:02:15.809Z,97333.83
2019-04-22T08:04:57.942Z,97343.02
2019-04-22T08:07:26.044Z,97335.26
2019-04-22T08:12:34.285Z,97344.77
2019-04-22T08:15:06.068Z,97329.56
2019-04-22T08:20:19.026Z,97321.34
2019-04-22T08:22:51.080Z,97322.22
2019-04-22T08:25:17.366Z,97315.27
2019-04-22T08:27:58.372Z,97314.39
2019-04-22T08:33:04.410Z,97308.30
2019-04-22T08:38:11.868Z,97301.92
2019-04-22T08:41:20.895Z,97307.20
2019-04-22T08:43:56.200Z,97295.56
2019-04-22T08:46:23.622Z,97297.25
2019-04-22T08:51:28.195Z,97294.98
2019-04-22T08:54:19.966Z,97292.06
2019-04-22T08:56:45.956Z,97281.96
2019-04-22T08:59:15.184Z,97277.81
2019-04-22T09:01:37.798Z,97276.47
2019-04-22T09:04:11.934Z,97265.52
2019-04-22T09:07:18.298Z,97264.47
2019-04-22T09:09:38.092Z,97256.64
2019-04-22T09:12:15.826Z,97256.61
2019-04-22T09:17:19.976Z,97255.97
2019-04-22T09:19:35.126Z,97249.30
2019-04-22T09:22:13.684Z,97265.44
2019-04-22T09:24:46.959Z,97239.84
2019-04-22T09:27:24.894Z,97259.81
2019-04-22T09:29:53.724Z,97249.98
2019-04-22T09:32:32.770Z,97248.26
2019-04-22T09:35:02.234Z,97232.53
2019-04-22T09:37:39.280Z,97242.94
2019-04-22T09:40:16.747Z,97247.77
2019-04-22T09:42:44.210Z,97236.08
2019-04-22T09:45:15.149Z,97233.52
2019-04-22T09:47:58.409Z,97237.44
2019-04-22T09:50:33.211Z,97221.81
2019-04-22T09:53:02.456Z,97217.94
2019-04-22T09:55:35.706Z,97218.71
2019-04-22T09:58:09.713Z,97215.23
2019-04-22T10:03:51.674Z,97215.12
2019-04-22T10:11:32.678Z,97196.26
2019-04-22T10:14:05.780Z,97187.47
2019-04-22T10:19:12.323Z,97193.27
2019-04-22T10:21:57.098Z,97187.12
2019-04-22T10:24:36.593Z,97181.01
2019-04-22T10:26:50.610Z,97185.73
2019-04-22T10:29:24.845Z,97172.81
2019-04-22T10:32:05.611Z,97165.39
2019-04-22T10:34:21.906Z,97169.61
2019-04-22T10:36:50.459Z,97178.93
2019-04-22T10:39:18.302Z,97165.51
2019-04-22T10:41:50.671Z,97161.48
2019-04-22T10:44:23.636Z,97156.23
2019-04-22T10:46:56.109Z,97150.66
2019-04-22T10:49:28.763Z,97147.39
2019-04-22T10:52:00.806Z,97141.19
2019-04-22T10:54:33.627Z,97138.07
2019-04-22T10:57:06.693Z,97139.02
2019-04-22T10:59:38.853Z,97125.16
2019-04-22T11:02:11.688Z,97125.55
2019-04-22T11:04:44.031Z,97116.26
2019-04-22T11:07:17.380Z,97116.70
2019-04-22T11:09:59.057Z,97113.55
2019-04-22T11:12:26.927Z,97106.94
2019-04-22T11:14:58.243Z,97097.70
2019-04-22T11:17:31.567Z,97100.64
2019-04-22T11:20:05.800Z,97090.95
2019-04-22T11:22:38.896Z,97088.64
2019-04-22T11:25:12.211Z,97087.92
2019-04-22T11:27:44.445Z,97079.27
2019-04-22T11:30:19.038Z,97066.35
2019-04-22T11:32:54.096Z,97098.66
2019-04-22T11:35:27.815Z,97079.19
2019-04-22T11:38:01.130Z,97067.73
2019-04-22T11:40:38.448Z,97063.75
2019-04-22T11:43:08.040Z,97050.97
2019-04-22T11:45:41.464Z,97054.48
2019-04-22T11:48:13.629Z,97054.30
2019-04-22T11:50:46.188Z,97060.05
2019-04-22T11:53:18.706Z,97048.24
2019-04-22T11:55:50.880Z,97044.16
2019-04-22T11:58:24.449Z,97047.42
2019-04-22T12:00:57.112Z,97039.59
2019-04-22T12:03:29.202Z,97018.53
2019-04-22T12:06:02.048Z,97027.48
2019-04-22T12:08:37.358Z,97029.55
2019-04-22T12:11:11.605Z,97028.20
2019-04-22T12:13:44.151Z,97019.09
2019-04-22T12:16:17.095Z,97023.31
2019-04-22T12:18:49.425Z,97022.13
2019-04-22T12:21:21.505Z,97020.97
2019-04-22T12:23:54.879Z,97010.92
2019-04-22T12:26:28.584Z,97003.95
2019-04-22T12:29:00.725Z,97003.61
2019-04-22T12:31:33.525Z,97000.06
2019-04-22T12:34:06.080Z,96999.55
2019-04-22T12:36:38.558Z,96985.25
2019-04-22T12:39:11.576Z,96977.63
2019-04-22T12:41:44.291Z,96996.69
2019-04-22T12:44:17.973Z,96987.74
2019-04-22T12:46:50.351Z,96972.47
2019-04-22T12:49:22.580Z,96965.33
2019-04-22T12:51:54.867Z,96964.55
2019-04-22T12:54:29.044Z,96961.00
2019-04-22T12:57:01.725Z,96957.57
2019-04-22T12:59:35.252Z,96950.17
2019-04-22T13:02:07.514Z,96944.91
2019-04-22T13:04:40.766Z,96940.12
2019-04-22T13:07:13.560Z,96943.09
2019-04-22T13:09:45.625Z,96927.97
2019-04-22T13:12:19.252Z,96926.48
2019-04-22T13:14:52.789Z,96927.75
2019-04-22T13:17:27.280Z,96927.30
2019-04-22T13:20:00.550Z,96916.59
2019-04-22T13:22:32.605Z,96916.75
2019-04-22T13:25:06.155Z,96906.42
2019-04-22T13:27:39.287Z,96917.28
2019-04-22T13:30:12.407Z,96906.93
2019-04-22T13:32:44.853Z,96900.25
2019-04-22T13:35:20.006Z,96890.98
2019-04-22T13:37:53.055Z,96896.31
2019-04-22T13:40:25.286Z,96886.84
2019-04-22T13:42:58.681Z,96889.76
2019-04-22T13:45:31.789Z,96879.91
2019-04-22T13:48:26.733Z,96871.75
2019-04-22T13:56:07.434Z,96875.87
2019-04-22T13:58:37.015Z,96884.56
2019-04-22T14:00:58.860Z,96887.95
2019-04-22T14:03:56.751Z,96865.35
2019-04-22T14:06:29.156Z,96849.92
2019-04-22T14:09:05.249Z,96852.93
2019-04-22T14:11:46.151Z,96843.92
2019-04-22T14:14:12.693Z,96848.96
2019-04-22T14:16:44.998Z,96843.34
2019-04-22T14:19:18.388Z,96847.12
2019-04-22T14:21:51.587Z,96833.59
2019-04-22T14:24:23.882Z,96835.34
2019-04-22T14:27:13.838Z,96828.37
2019-04-22T14:29:29.753Z,96818.37
2019-04-22T14:32:10.235Z,96824.20
2019-04-22T14:34:36.268Z,96814.80
2019-04-22T14:37:09.862Z,96810.02
2019-04-22T14:39:42.235Z,96823.74
2019-04-22T14:42:36.345Z,96811.59
2019-04-22T14:47:48.005Z,96808.94
2019-04-22T14:50:17.795Z,96809.63
2019-04-22T14:52:50.637Z,96810.53
2019-04-22T14:55:12.941Z,96806.68
2019-04-22T14:57:40.368Z,96809.44
2019-04-22T15:00:15.859Z,96810.73
2019-04-22T15:02:48.076Z,96797.22
2019-04-22T15:05:21.919Z,96787.88
2019-04-22T15:07:55.046Z,96788.62
2019-04-22T15:10:28.207Z,96779.97
2019-04-22T15:13:00.808Z,96790.93
2019-04-22T15:15:53.320Z,96784.57
2019-04-22T15:18:51.652Z,96777.81
2019-04-22T15:21:25.138Z,96774.31
2019-04-22T15:24:00.522Z,96774.17
2019-04-22T15:26:32.850Z,96769.99
2019-04-22T15:29:05.260Z,96771.34
2019-04-22T15:31:37.542Z,96759.89
2019-04-22T15:34:10.240Z,96768.30
2019-04-22T15:36:42.315Z,96778.49
2019-04-22T15:39:15.553Z,96755.39
2019-04-22T15:41:58.153Z,96746.80
2019-04-22T15:44:21.963Z,96753.51
2019-04-22T15:46:55.092Z,96745.23
2019-04-22T15:49:27.871Z,96745.16
2019-04-22T15:52:01.139Z,96736.99
2019-04-22T15:54:34.032Z,96724.95
2019-04-22T15:57:06.696Z,96730.63
2019-04-22T15:59:53.727Z,96730.72
2019-04-22T16:02:13.996Z,96732.98
2019-04-22T16:04:46.517Z,96738.61
2019-04-22T16:07:20.595Z,96723.28
2019-04-22T16:09:53.913Z,96728.30
2019-04-22T16:12:34.475Z,96718.20
2019-04-22T16:15:03.114Z,96722.64
2019-04-22T16:17:34.782Z,96720.47
2019-04-22T16:20:07.076Z,96720.33
2019-04-22T16:23:20.189Z,96715.30
2019-04-22T16:25:58.952Z,96714.84
2019-04-22T16:28:31.345Z,96698.88
2019-04-22T16:31:03.912Z,96718.20
2019-04-22T16:33:39.795Z,96704.48
2019-04-22T16:36:11.051Z,96707.04
2019-04-22T16:38:44.733Z,96706.09
2019-04-22T16:41:17.141Z,96702.58
2019-04-22T16:43:50.708Z,96703.08
2019-04-22T16:46:23.564Z,96695.80
2019-04-22T16:48:56.058Z,96697.55
2019-04-22T16:51:28.157Z,96698.45
2019-04-22T16:54:00.162Z,96699.44
2019-04-22T16:56:35.324Z,96687.58
2019-04-22T16:59:06.677Z,96689.95
2019-04-22T17:01:58.737Z,96693.17
2019-04-22T17:04:50.861Z,96693.62
2019-04-22T17:07:24.464Z,96691.09
2019-04-22T17:09:57.584Z,96687.18
2019-04-22T17:12:41.901Z,96691.66
2019-04-22T17:15:08.688Z,96686.84
2019-04-22T17:17:41.282Z,96691.98
2019-04-22T17:20:13.453Z,96680.37
2019-04-22T17:22:45.471Z,96684.36
2019-04-22T17:25:18.263Z,96686.63
2019-04-22T17:27:51.822Z,96687.07
2019-04-22T17:30:24.387Z,96693.59
2019-04-22T17:32:56.752Z,96690.53
2019-04-22T17:35:30.123Z,96696.20
2019-04-22T17:38:13.562Z,96691.05
2019-04-22T17:40:51.028Z,96690.58
2019-04-22T17:43:45.724Z,96686.25
2019-04-22T17:46:24.767Z,96688.65
2019-04-22T17:49:04.416Z,96695.28
2019-04-22T17:51:49.315Z,96698.45
2019-04-22T17:54:17.190Z,96693.59
2019-04-22T17:56:48.684Z,96698.45
2019-04-22T17:59:24.382Z,96699.78
2019-04-22T18:01:55.126Z,96701.52
2019-04-22T18:04:10.572Z,96700.80
2019-04-22T18:07:12.108Z,96705.11
2019-04-22T18:10:06.620Z,96703.00
2019-04-22T18:12:19.280Z,96699.51
2019-04-22T18:14:51.613Z,96697.42
2019-04-22T18:17:23.399Z,96698.73
2019-04-22T18:19:52.232Z,96694.00
2019-04-22T18:22:21.771Z,96695.36
2019-04-22T18:24:53.156Z,96692.34
2019-04-22T18:30:06.422Z,96695.03
2019-04-22T18:32:41.235Z,96701.54
2019-04-22T18:35:14.233Z,96698.52
2019-04-22T18:37:56.342Z,96696.84
2019-04-22T18:40:25.998Z,96699.05
2019-04-22T18:43:03.622Z,96700.37
2019-04-22T18:45:42.353Z,96702.09
2019-04-22T18:47:59.841Z,96692.63
2019-04-22T18:50:52.942Z,96688.33
2019-04-22T18:53:48.384Z,96690.10
2019-04-22T18:56:25.367Z,96691.85
2019-04-22T18:58:47.533Z,96688.83
2019-04-22T19:01:12.445Z,96678.91
2019-04-22T19:03:55.189Z,96684.53
2019-04-22T19:06:56.214Z,96681.49
2019-04-22T19:09:15.083Z,96683.25
2019-04-22T19:12:01.793Z,96682.80
2019-04-22T19:14:24.897Z,96678.92
2019-04-22T19:17:08.238Z,96683.24
2019-04-22T19:19:33.482Z,96681.07
2019-04-22T19:21:58.967Z,96679.77
2019-04-22T19:24:37.194Z,96681.47
2019-04-22T19:27:09.578Z,96676.28
2019-04-22T19:29:52.372Z,96672.38
2019-04-22T19:32:21.413Z,96680.59
2019-04-22T19:34:54.159Z,96689.20
2019-04-22T19:37:25.396Z,96690.47
2019-04-22T19:40:13.052Z,96687.00
2019-04-22T19:42:43.168Z,96687.83
2019-04-22T19:45:11.808Z,96688.67
2019-04-22T19:47:51.613Z,96688.69
2019-04-22T19:50:22.808Z,96689.09
2019-04-22T19:52:52.585Z,96688.20
2019-04-22T19:55:27.383Z,96685.62
2019-04-22T19:58:00.028Z,96680.48
2019-04-22T20:00:45.958Z,96681.28
2019-04-22T20:03:58.404Z,96681.27
2019-04-22T20:06:33.651Z,96679.13
2019-04-22T20:09:05.796Z,96686.92
2019-04-22T20:11:41.284Z,96694.23
2019-04-22T20:14:12.571Z,96695.47
2019-04-22T20:16:41.329Z,96687.69
2019-04-22T20:19:26.831Z,96688.97
2019-04-22T20:22:00.099Z,96684.20
2019-04-22T20:24:16.150Z,96686.80
2019-04-22T20:27:03.040Z,96689.75
2019-04-22T20:29:41.721Z,96689.70
2019-04-22T20:32:10.953Z,96680.20
2019-04-22T20:34:50.869Z,96672.00
2019-04-22T20:37:29.686Z,96668.02
2019-04-22T20:39:54.573Z,96668.41
2019-04-22T20:42:50.137Z,96668.44
2019-04-22T20:45:05.437Z,96662.73
2019-04-22T20:47:31.976Z,96667.04
2019-04-22T20:50:17.512Z,96659.33
2019-04-22T20:52:54.242Z,96651.01
2019-04-22T20:55:17.750Z,96645.02
2019-04-22T20:57:54.284Z,96650.98
2019-04-22T21:00:23.557Z,96644.15
2019-04-22T21:02:52.838Z,96653.52
2019-04-22T21:05:32.751Z,96641.09
2019-04-22T21:08:11.395Z,96644.48
2019-04-22T21:10:39.825Z,96649.19
2019-04-22T21:13:18.129Z,96650.05
2019-04-22T21:15:59.217Z,96646.52
2019-04-22T21:18:26.597Z,96647.77
2019-04-22T21:21:02.772Z,96641.66
2019-04-22T21:23:29.236Z,96640.80
2019-04-22T21:26:08.002Z,96644.72
2019-04-22T21:28:42.961Z,96649.88
2019-04-22T21:31:23.759Z,96638.21
2019-04-22T21:33:51.944Z,96645.06
2019-04-22T21:36:30.212Z,96644.17
2019-04-22T21:39:02.178Z,96636.34
2019-04-22T21:41:32.498Z,96640.13
2019-04-22T21:44:11.875Z,96641.88
2019-04-22T21:46:51.077Z,96633.73
2019-04-22T21:49:23.216Z,96629.48
2019-04-22T21:51:55.218Z,96621.50
2019-04-22T21:54:30.254Z,96615.42
2019-04-22T21:59:45.132Z,96611.55
2019-04-22T22:02:24.903Z,96606.73
2019-04-22T22:04:48.948Z,96605.35
2019-04-22T22:07:13.874Z,96600.22
2019-04-22T22:09:59.605Z,96607.13
2019-04-22T22:12:36.175Z,96598.03
2019-04-22T22:15:06.828Z,96606.16
2019-04-22T22:17:42.302Z,96604.03
2019-04-22T22:20:10.978Z,96601.45
2019-04-22T22:23:15.013Z,96600.47
2019-04-22T22:25:26.510Z,96597.03
2019-04-22T22:27:59.845Z,96594.02
2019-04-22T22:33:11.006Z,96582.73
2019-04-22T22:35:42.371Z,96581.07
2019-04-22T22:38:12.018Z,96575.02
2019-04-22T22:40:34.117Z,96575.88
2019-04-22T22:43:15.931Z,96575.64
2019-04-22T22:45:48.290Z,96577.78
2019-04-22T22:48:41.426Z,96569.21
2019-04-22T22:51:04.954Z,96570.84
2019-04-22T22:53:46.428Z,96566.90
2019-04-22T22:56:16.058Z,96556.52
2019-04-22T22:58:55.349Z,96556.34
2019-04-22T23:01:24.265Z,96559.09
2019-04-22T23:03:56.040Z,96552.02
2019-04-22T23:06:56.604Z,96549.86
2019-04-22T23:09:05.733Z,96552.27
2019-04-22T23:11:58.560Z,96548.53
2019-04-22T23:14:14.555Z,96543.59
2019-04-22T23:16:37.437Z,96546.61
2019-04-22T23:19:04.428Z,96543.63
2019-04-22T23:21:41.710Z,96547.36
2019-04-22T23:24:44.041Z,96534.67
2019-04-22T23:27:24.485Z,96525.50
2019-04-22T23:30:02.029Z,96530.91
2019-04-22T23:32:35.489Z,96529.23
2019-04-22T23:35:22.562Z,96522.00
2019-04-22T23:37:57.105Z,96526.89
2019-04-22T23:40:36.849Z,96520.13
2019-04-22T23:43:17.999Z,96519.66
2019-04-22T23:45:46.590Z,96528.41
2019-04-22T23:48:12.825Z,96527.94
2019-04-22T23:50:57.347Z,96514.08
2019-04-22T23:56:08.154Z,96506.58
2019-04-22T23:59:03.000Z,96503.22
